sensor_id;sensor_type;location;lat;lon;timestamp;P1;durP1;ratioP1;P2;durP2;ratioP2
7917;SDS011;4004;42.624;23.386;2022-10-19T00:00:30;8.67;;;5.67;;
7917;SDS011;4004;42.624;23.386;2022-10-19T00:02:57;9.07;;;6.37;;
7917;SDS011;4004;42.624;23.386;2022-10-19T00:05:23;5.67;;;5.07;;
7917;SDS011;4004;42.624;23.386;2022-10-19T00:07:50;6.67;;;5.80;;
7917;SDS011;4004;42.624;23.386;2022-10-19T00:10:20;8.77;;;5.73;;
7917;SDS011;4004;42.624;23.386;2022-10-19T00:12:46;5.97;;;5.37;;
7917;SDS011;4004;42.624;23.386;2022-10-19T00:15:13;6.47;;;5.20;;
7917;SDS011;4004;42.624;23.386;2022-10-19T00:17:40;7.07;;;5.80;;
7917;SDS011;4004;42.624;23.386;2022-10-19T00:20:07;10.23;;;5.53;;
7917;SDS011;4004;42.624;23.386;2022-10-19T00:22:34;11.30;;;5.67;;
7917;SDS011;4004;42.624;23.386;2022-10-19T00:25:01;6.67;;;5.43;;
7917;SDS011;4004;42.624;23.386;2022-10-19T00:27:30;5.47;;;4.90;;
7917;SDS011;4004;42.624;23.386;2022-10-19T00:29:56;6.47;;;4.93;;
7917;SDS011;4004;42.624;23.386;2022-10-19T00:32:23;6.30;;;5.03;;
7917;SDS011;4004;42.624;23.386;2022-10-19T00:34:50;7.23;;;5.40;;
7917;SDS011;4004;42.624;23.386;2022-10-19T00:37:17;8.13;;;5.27;;
7917;SDS011;4004;42.624;23.386;2022-10-19T00:39:43;7.07;;;4.83;;
7917;SDS011;4004;42.624;23.386;2022-10-19T00:42:10;9.13;;;4.90;;
7917;SDS011;4004;42.624;23.386;2022-10-19T00:44:58;6.93;;;5.53;;
7917;SDS011;4004;42.624;23.386;2022-10-19T00:47:27;8.43;;;5.63;;
7917;SDS011;4004;42.624;23.386;2022-10-19T00:49:54;9.20;;;6.00;;
7917;SDS011;4004;42.624;23.386;2022-10-19T00:52:23;5.70;;;5.17;;
7917;SDS011;4004;42.624;23.386;2022-10-19T00:54:51;6.90;;;5.40;;
7917;SDS011;4004;42.624;23.386;2022-10-19T00:57:20;6.90;;;5.20;;
7917;SDS011;4004;42.624;23.386;2022-10-19T00:59:48;8.57;;;5.07;;
7917;SDS011;4004;42.624;23.386;2022-10-19T01:02:18;6.77;;;4.77;;
7917;SDS011;4004;42.624;23.386;2022-10-19T01:04:46;6.40;;;4.70;;
7917;SDS011;4004;42.624;23.386;2022-10-19T01:07:15;5.97;;;4.40;;
7917;SDS011;4004;42.624;23.386;2022-10-19T01:09:42;7.27;;;5.40;;
7917;SDS011;4004;42.624;23.386;2022-10-19T01:12:11;7.23;;;4.70;;
7917;SDS011;4004;42.624;23.386;2022-10-19T01:14:49;6.10;;;4.27;;
7917;SDS011;4004;42.624;23.386;2022-10-19T01:17:31;7.30;;;4.30;;
7917;SDS011;4004;42.624;23.386;2022-10-19T01:23:29;6.20;;;4.70;;
7917;SDS011;4004;42.624;23.386;2022-10-19T01:26:24;6.17;;;4.57;;
7917;SDS011;4004;42.624;23.386;2022-10-19T01:29:08;6.67;;;4.67;;
7917;SDS011;4004;42.624;23.386;2022-10-19T01:31:45;5.93;;;4.40;;
7917;SDS011;4004;42.624;23.386;2022-10-19T01:34:16;4.60;;;4.13;;
7917;SDS011;4004;42.624;23.386;2022-10-19T01:36:49;5.77;;;4.50;;
7917;SDS011;4004;42.624;23.386;2022-10-19T01:39:25;7.10;;;4.57;;
7917;SDS011;4004;42.624;23.386;2022-10-19T01:42:02;7.90;;;4.43;;
7917;SDS011;4004;42.624;23.386;2022-10-19T01:44:38;5.30;;;3.93;;
7917;SDS011;4004;42.624;23.386;2022-10-19T01:47:12;7.37;;;4.93;;
7917;SDS011;4004;42.624;23.386;2022-10-19T01:49:43;6.03;;;4.50;;
7917;SDS011;4004;42.624;23.386;2022-10-19T01:52:16;4.87;;;4.10;;
7917;SDS011;4004;42.624;23.386;2022-10-19T01:54:46;4.93;;;4.13;;
7917;SDS011;4004;42.624;23.386;2022-10-19T01:57:16;11.03;;;4.53;;
7917;SDS011;4004;42.624;23.386;2022-10-19T01:59:47;5.23;;;4.57;;
7917;SDS011;4004;42.624;23.386;2022-10-19T02:02:16;6.00;;;4.63;;
7917;SDS011;4004;42.624;23.386;2022-10-19T02:04:45;6.47;;;4.67;;
7917;SDS011;4004;42.624;23.386;2022-10-19T02:07:15;6.13;;;4.83;;
7917;SDS011;4004;42.624;23.386;2022-10-19T02:09:45;9.17;;;5.30;;
7917;SDS011;4004;42.624;23.386;2022-10-19T02:12:11;6.10;;;5.20;;
7917;SDS011;4004;42.624;23.386;2022-10-19T02:14:40;5.70;;;4.97;;
7917;SDS011;4004;42.624;23.386;2022-10-19T02:17:10;6.73;;;4.40;;
7917;SDS011;4004;42.624;23.386;2022-10-19T02:19:40;6.97;;;5.20;;
7917;SDS011;4004;42.624;23.386;2022-10-19T02:22:08;5.40;;;4.50;;
7917;SDS011;4004;42.624;23.386;2022-10-19T02:24:35;6.17;;;4.63;;
7917;SDS011;4004;42.624;23.386;2022-10-19T02:27:02;6.27;;;4.13;;
7917;SDS011;4004;42.624;23.386;2022-10-19T02:29:30;6.47;;;4.33;;
7917;SDS011;4004;42.624;23.386;2022-10-19T02:31:58;6.37;;;4.27;;
7917;SDS011;4004;42.624;23.386;2022-10-19T02:34:25;5.20;;;4.57;;
7917;SDS011;4004;42.624;23.386;2022-10-19T02:36:54;4.93;;;4.43;;
7917;SDS011;4004;42.624;23.386;2022-10-19T02:39:21;7.03;;;4.73;;
7917;SDS011;4004;42.624;23.386;2022-10-19T02:41:49;6.40;;;4.50;;
7917;SDS011;4004;42.624;23.386;2022-10-19T02:44:19;4.30;;;3.90;;
7917;SDS011;4004;42.624;23.386;2022-10-19T02:46:52;7.83;;;3.87;;
7917;SDS011;4004;42.624;23.386;2022-10-19T02:49:23;5.73;;;3.70;;
7917;SDS011;4004;42.624;23.386;2022-10-19T02:51:56;18.53;;;4.77;;
7917;SDS011;4004;42.624;23.386;2022-10-19T02:54:25;8.17;;;3.50;;
7917;SDS011;4004;42.624;23.386;2022-10-19T02:56:52;5.33;;;3.63;;
7917;SDS011;4004;42.624;23.386;2022-10-19T02:59:19;4.50;;;3.43;;
7917;SDS011;4004;42.624;23.386;2022-10-19T03:01:46;3.57;;;3.10;;
7917;SDS011;4004;42.624;23.386;2022-10-19T03:04:13;3.80;;;3.20;;
7917;SDS011;4004;42.624;23.386;2022-10-19T03:06:40;3.73;;;3.33;;
7917;SDS011;4004;42.624;23.386;2022-10-19T03:09:08;4.60;;;3.03;;
7917;SDS011;4004;42.624;23.386;2022-10-19T03:11:35;5.97;;;3.27;;
7917;SDS011;4004;42.624;23.386;2022-10-19T03:14:03;5.03;;;3.20;;
7917;SDS011;4004;42.624;23.386;2022-10-19T03:16:29;4.20;;;3.53;;
7917;SDS011;4004;42.624;23.386;2022-10-19T03:18:56;5.20;;;3.37;;
7917;SDS011;4004;42.624;23.386;2022-10-19T03:21:23;4.10;;;3.57;;
7917;SDS011;4004;42.624;23.386;2022-10-19T03:23:50;5.83;;;3.97;;
7917;SDS011;4004;42.624;23.386;2022-10-19T03:26:18;5.27;;;3.37;;
7917;SDS011;4004;42.624;23.386;2022-10-19T03:28:45;9.80;;;3.80;;
7917;SDS011;4004;42.624;23.386;2022-10-19T03:31:11;6.47;;;3.87;;
7917;SDS011;4004;42.624;23.386;2022-10-19T03:33:38;5.13;;;3.50;;
7917;SDS011;4004;42.624;23.386;2022-10-19T03:36:11;7.27;;;3.60;;
7917;SDS011;4004;42.624;23.386;2022-10-19T03:38:40;5.73;;;4.20;;
7917;SDS011;4004;42.624;23.386;2022-10-19T03:41:07;6.87;;;4.60;;
7917;SDS011;4004;42.624;23.386;2022-10-19T03:43:35;5.93;;;3.97;;
7917;SDS011;4004;42.624;23.386;2022-10-19T03:46:02;6.70;;;4.20;;
7917;SDS011;4004;42.624;23.386;2022-10-19T03:48:28;4.63;;;3.83;;
7917;SDS011;4004;42.624;23.386;2022-10-19T03:50:59;8.03;;;3.50;;
7917;SDS011;4004;42.624;23.386;2022-10-19T03:53:26;12.77;;;4.63;;
7917;SDS011;4004;42.624;23.386;2022-10-19T03:55:59;8.57;;;4.23;;
7917;SDS011;4004;42.624;23.386;2022-10-19T03:58:27;4.60;;;3.40;;
7917;SDS011;4004;42.624;23.386;2022-10-19T04:00:55;4.73;;;3.63;;
7917;SDS011;4004;42.624;23.386;2022-10-19T04:03:22;6.70;;;4.10;;
7917;SDS011;4004;42.624;23.386;2022-10-19T04:05:48;5.40;;;3.80;;
7917;SDS011;4004;42.624;23.386;2022-10-19T04:08:15;7.83;;;4.10;;
7917;SDS011;4004;42.624;23.386;2022-10-19T04:10:42;21.43;;;15.27;;
7917;SDS011;4004;42.624;23.386;2022-10-19T04:13:09;12.80;;;8.73;;
7917;SDS011;4004;42.624;23.386;2022-10-19T04:15:36;5.60;;;3.80;;
7917;SDS011;4004;42.624;23.386;2022-10-19T04:18:04;4.60;;;3.60;;
7917;SDS011;4004;42.624;23.386;2022-10-19T04:20:31;9.20;;;4.77;;
7917;SDS011;4004;42.624;23.386;2022-10-19T04:22:57;14.60;;;3.77;;
7917;SDS011;4004;42.624;23.386;2022-10-19T04:25:24;6.70;;;3.40;;
7917;SDS011;4004;42.624;23.386;2022-10-19T04:27:51;8.03;;;3.80;;
7917;SDS011;4004;42.624;23.386;2022-10-19T04:30:18;7.27;;;3.67;;
7917;SDS011;4004;42.624;23.386;2022-10-19T04:32:44;9.10;;;4.23;;
7917;SDS011;4004;42.624;23.386;2022-10-19T04:35:13;10.83;;;4.10;;
7917;SDS011;4004;42.624;23.386;2022-10-19T04:37:39;6.43;;;4.43;;
7917;SDS011;4004;42.624;23.386;2022-10-19T04:40:07;9.67;;;4.27;;
7917;SDS011;4004;42.624;23.386;2022-10-19T04:42:34;15.37;;;11.73;;
7917;SDS011;4004;42.624;23.386;2022-10-19T04:45:01;20.27;;;5.73;;
7917;SDS011;4004;42.624;23.386;2022-10-19T04:47:28;14.00;;;4.53;;
7917;SDS011;4004;42.624;23.386;2022-10-19T04:49:55;8.67;;;4.23;;
7917;SDS011;4004;42.624;23.386;2022-10-19T04:52:23;8.13;;;4.70;;
7917;SDS011;4004;42.624;23.386;2022-10-19T04:54:50;8.73;;;4.87;;
7917;SDS011;4004;42.624;23.386;2022-10-19T04:57:17;8.83;;;4.00;;
7917;SDS011;4004;42.624;23.386;2022-10-19T04:59:44;10.53;;;4.43;;
7917;SDS011;4004;42.624;23.386;2022-10-19T05:02:12;9.10;;;4.37;;
7917;SDS011;4004;42.624;23.386;2022-10-19T05:04:38;11.73;;;4.40;;
7917;SDS011;4004;42.624;23.386;2022-10-19T05:07:05;7.87;;;4.50;;
7917;SDS011;4004;42.624;23.386;2022-10-19T05:09:33;8.07;;;3.90;;
7917;SDS011;4004;42.624;23.386;2022-10-19T05:12:00;12.77;;;4.60;;
7917;SDS011;4004;42.624;23.386;2022-10-19T05:14:27;13.60;;;4.83;;
7917;SDS011;4004;42.624;23.386;2022-10-19T05:16:54;9.67;;;4.53;;
7917;SDS011;4004;42.624;23.386;2022-10-19T05:19:21;13.07;;;5.00;;
7917;SDS011;4004;42.624;23.386;2022-10-19T05:21:48;8.33;;;4.43;;
7917;SDS011;4004;42.624;23.386;2022-10-19T05:24:14;15.27;;;5.03;;
7917;SDS011;4004;42.624;23.386;2022-10-19T05:26:42;15.27;;;4.87;;
7917;SDS011;4004;42.624;23.386;2022-10-19T05:29:10;15.33;;;4.43;;
7917;SDS011;4004;42.624;23.386;2022-10-19T05:31:38;24.63;;;6.00;;
7917;SDS011;4004;42.624;23.386;2022-10-19T05:34:05;15.33;;;4.97;;
7917;SDS011;4004;42.624;23.386;2022-10-19T05:36:32;10.53;;;4.00;;
7917;SDS011;4004;42.624;23.386;2022-10-19T05:39:01;8.87;;;4.23;;
7917;SDS011;4004;42.624;23.386;2022-10-19T05:41:30;8.23;;;4.87;;
7917;SDS011;4004;42.624;23.386;2022-10-19T05:43:58;10.23;;;5.00;;
7917;SDS011;4004;42.624;23.386;2022-10-19T05:46:27;6.37;;;4.20;;
7917;SDS011;4004;42.624;23.386;2022-10-19T05:48:55;5.90;;;4.20;;
7917;SDS011;4004;42.624;23.386;2022-10-19T05:51:24;8.67;;;4.87;;
7917;SDS011;4004;42.624;23.386;2022-10-19T05:53:52;14.53;;;5.70;;
7917;SDS011;4004;42.624;23.386;2022-10-19T05:56:20;13.17;;;5.03;;
7917;SDS011;4004;42.624;23.386;2022-10-19T05:58:48;6.30;;;4.10;;
7917;SDS011;4004;42.624;23.386;2022-10-19T06:01:17;10.17;;;4.63;;
7917;SDS011;4004;42.624;23.386;2022-10-19T06:03:45;9.67;;;4.47;;
7917;SDS011;4004;42.624;23.386;2022-10-19T06:06:12;12.60;;;4.47;;
7917;SDS011;4004;42.624;23.386;2022-10-19T06:08:39;10.00;;;5.00;;
7917;SDS011;4004;42.624;23.386;2022-10-19T06:11:06;10.80;;;4.70;;
7917;SDS011;4004;42.624;23.386;2022-10-19T06:13:34;6.53;;;3.90;;
7917;SDS011;4004;42.624;23.386;2022-10-19T06:16:01;10.23;;;4.60;;
7917;SDS011;4004;42.624;23.386;2022-10-19T06:18:30;9.20;;;3.93;;
7917;SDS011;4004;42.624;23.386;2022-10-19T06:21:00;9.57;;;4.30;;
7917;SDS011;4004;42.624;23.386;2022-10-19T06:23:28;19.93;;;6.10;;
7917;SDS011;4004;42.624;23.386;2022-10-19T06:25:54;5.33;;;3.83;;
7917;SDS011;4004;42.624;23.386;2022-10-19T06:28:21;11.20;;;4.37;;
7917;SDS011;4004;42.624;23.386;2022-10-19T06:30:48;25.00;;;5.77;;
7917;SDS011;4004;42.624;23.386;2022-10-19T06:33:15;8.90;;;4.70;;
7917;SDS011;4004;42.624;23.386;2022-10-19T06:35:43;14.47;;;4.83;;
7917;SDS011;4004;42.624;23.386;2022-10-19T06:38:09;11.10;;;4.00;;
7917;SDS011;4004;42.624;23.386;2022-10-19T06:40:37;12.57;;;5.10;;
7917;SDS011;4004;42.624;23.386;2022-10-19T06:43:04;8.73;;;5.00;;
7917;SDS011;4004;42.624;23.386;2022-10-19T06:45:31;14.23;;;5.57;;
7917;SDS011;4004;42.624;23.386;2022-10-19T06:47:58;14.53;;;4.53;;
7917;SDS011;4004;42.624;23.386;2022-10-19T06:50:25;14.67;;;5.20;;
7917;SDS011;4004;42.624;23.386;2022-10-19T06:52:53;13.73;;;6.33;;
7917;SDS011;4004;42.624;23.386;2022-10-19T06:55:20;11.07;;;5.80;;
7917;SDS011;4004;42.624;23.386;2022-10-19T06:57:47;22.90;;;6.73;;
7917;SDS011;4004;42.624;23.386;2022-10-19T07:00:14;19.53;;;7.10;;
7917;SDS011;4004;42.624;23.386;2022-10-19T07:02:41;18.40;;;7.83;;
7917;SDS011;4004;42.624;23.386;2022-10-19T07:05:08;15.90;;;7.67;;
7917;SDS011;4004;42.624;23.386;2022-10-19T07:07:35;21.33;;;7.83;;
7917;SDS011;4004;42.624;23.386;2022-10-19T07:10:04;17.60;;;7.20;;
7917;SDS011;4004;42.624;23.386;2022-10-19T07:12:31;25.40;;;7.20;;
7917;SDS011;4004;42.624;23.386;2022-10-19T07:14:58;28.00;;;7.23;;
7917;SDS011;4004;42.624;23.386;2022-10-19T07:17:24;15.27;;;5.37;;
7917;SDS011;4004;42.624;23.386;2022-10-19T07:19:51;12.83;;;5.37;;
7917;SDS011;4004;42.624;23.386;2022-10-19T07:22:19;11.03;;;6.27;;
7917;SDS011;4004;42.624;23.386;2022-10-19T07:24:45;10.60;;;6.30;;
7917;SDS011;4004;42.624;23.386;2022-10-19T07:27:14;13.80;;;5.47;;
7917;SDS011;4004;42.624;23.386;2022-10-19T07:29:40;11.20;;;5.90;;
7917;SDS011;4004;42.624;23.386;2022-10-19T07:32:07;18.30;;;6.23;;
7917;SDS011;4004;42.624;23.386;2022-10-19T07:34:34;16.80;;;6.10;;
7917;SDS011;4004;42.624;23.386;2022-10-19T07:37:01;11.70;;;6.10;;
7917;SDS011;4004;42.624;23.386;2022-10-19T07:39:28;19.63;;;6.97;;
7917;SDS011;4004;42.624;23.386;2022-10-19T07:41:54;27.53;;;7.00;;
7917;SDS011;4004;42.624;23.386;2022-10-19T07:44:23;12.67;;;6.23;;
7917;SDS011;4004;42.624;23.386;2022-10-19T07:46:50;12.33;;;6.37;;
7917;SDS011;4004;42.624;23.386;2022-10-19T07:49:16;16.57;;;7.17;;
7917;SDS011;4004;42.624;23.386;2022-10-19T07:51:44;16.97;;;7.20;;
7917;SDS011;4004;42.624;23.386;2022-10-19T07:54:11;15.83;;;7.27;;
7917;SDS011;4004;42.624;23.386;2022-10-19T07:56:38;18.20;;;7.70;;
7917;SDS011;4004;42.624;23.386;2022-10-19T07:59:05;13.80;;;7.13;;
7917;SDS011;4004;42.624;23.386;2022-10-19T08:01:34;19.13;;;8.17;;
7917;SDS011;4004;42.624;23.386;2022-10-19T08:04:05;13.37;;;8.07;;
7917;SDS011;4004;42.624;23.386;2022-10-19T08:06:32;17.77;;;7.57;;
7917;SDS011;4004;42.624;23.386;2022-10-19T08:08:59;17.23;;;8.27;;
7917;SDS011;4004;42.624;23.386;2022-10-19T08:11:27;14.83;;;7.93;;
7917;SDS011;4004;42.624;23.386;2022-10-19T08:13:56;16.83;;;8.13;;
7917;SDS011;4004;42.624;23.386;2022-10-19T08:16:25;15.37;;;8.03;;
7917;SDS011;4004;42.624;23.386;2022-10-19T08:18:56;24.27;;;8.53;;
7917;SDS011;4004;42.624;23.386;2022-10-19T08:21:24;15.90;;;9.23;;
7917;SDS011;4004;42.624;23.386;2022-10-19T08:23:51;12.93;;;8.77;;
7917;SDS011;4004;42.624;23.386;2022-10-19T08:26:18;14.83;;;8.60;;
7917;SDS011;4004;42.624;23.386;2022-10-19T08:28:45;25.73;;;9.50;;
7917;SDS011;4004;42.624;23.386;2022-10-19T08:31:13;14.20;;;8.83;;
7917;SDS011;4004;42.624;23.386;2022-10-19T08:33:41;22.57;;;9.70;;
7917;SDS011;4004;42.624;23.386;2022-10-19T08:36:10;13.97;;;8.50;;
7917;SDS011;4004;42.624;23.386;2022-10-19T08:38:39;16.63;;;8.93;;
7917;SDS011;4004;42.624;23.386;2022-10-19T08:41:11;21.30;;;8.40;;
7917;SDS011;4004;42.624;23.386;2022-10-19T08:43:51;15.93;;;9.00;;
7917;SDS011;4004;42.624;23.386;2022-10-19T08:46:30;23.53;;;10.03;;
7917;SDS011;4004;42.624;23.386;2022-10-19T08:49:05;18.87;;;9.73;;
7917;SDS011;4004;42.624;23.386;2022-10-19T08:51:36;23.17;;;10.10;;
7917;SDS011;4004;42.624;23.386;2022-10-19T08:54:07;21.33;;;9.23;;
7917;SDS011;4004;42.624;23.386;2022-10-19T08:56:42;29.30;;;10.07;;
7917;SDS011;4004;42.624;23.386;2022-10-19T08:59:29;17.37;;;9.00;;
7917;SDS011;4004;42.624;23.386;2022-10-19T09:02:04;24.17;;;9.03;;
7917;SDS011;4004;42.624;23.386;2022-10-19T09:04:38;18.83;;;8.23;;
7917;SDS011;4004;42.624;23.386;2022-10-19T09:07:22;22.10;;;8.60;;
7917;SDS011;4004;42.624;23.386;2022-10-19T09:09:53;15.80;;;8.20;;
7917;SDS011;4004;42.624;23.386;2022-10-19T09:12:33;13.53;;;6.87;;
7917;SDS011;4004;42.624;23.386;2022-10-19T09:15:06;12.40;;;7.97;;
7917;SDS011;4004;42.624;23.386;2022-10-19T09:17:38;12.53;;;7.00;;
7917;SDS011;4004;42.624;23.386;2022-10-19T09:20:14;16.63;;;6.40;;
7917;SDS011;4004;42.624;23.386;2022-10-19T09:22:44;13.00;;;6.90;;
7917;SDS011;4004;42.624;23.386;2022-10-19T09:25:17;10.67;;;4.90;;
7917;SDS011;4004;42.624;23.386;2022-10-19T09:27:47;8.87;;;4.93;;
7917;SDS011;4004;42.624;23.386;2022-10-19T09:30:18;7.70;;;5.00;;
7917;SDS011;4004;42.624;23.386;2022-10-19T09:32:47;10.20;;;4.60;;
7917;SDS011;4004;42.624;23.386;2022-10-19T09:35:19;6.13;;;4.43;;
7917;SDS011;4004;42.624;23.386;2022-10-19T09:37:53;8.10;;;4.70;;
7917;SDS011;4004;42.624;23.386;2022-10-19T09:40:21;9.30;;;4.30;;
7917;SDS011;4004;42.624;23.386;2022-10-19T09:42:49;10.67;;;4.50;;
7917;SDS011;4004;42.624;23.386;2022-10-19T09:45:25;12.63;;;4.30;;
7917;SDS011;4004;42.624;23.386;2022-10-19T09:47:57;11.20;;;4.67;;
7917;SDS011;4004;42.624;23.386;2022-10-19T09:50:28;11.43;;;4.07;;
7917;SDS011;4004;42.624;23.386;2022-10-19T09:52:58;13.23;;;4.40;;
7917;SDS011;4004;42.624;23.386;2022-10-19T09:55:33;7.53;;;4.67;;
7917;SDS011;4004;42.624;23.386;2022-10-19T09:58:03;8.80;;;4.30;;
7917;SDS011;4004;42.624;23.386;2022-10-19T10:00:40;12.73;;;4.60;;
7917;SDS011;4004;42.624;23.386;2022-10-19T10:03:20;9.50;;;4.10;;
7917;SDS011;4004;42.624;23.386;2022-10-19T10:05:49;8.83;;;3.57;;
7917;SDS011;4004;42.624;23.386;2022-10-19T10:08:18;8.40;;;3.33;;
7917;SDS011;4004;42.624;23.386;2022-10-19T10:10:52;10.13;;;4.20;;
7917;SDS011;4004;42.624;23.386;2022-10-19T10:13:23;10.33;;;3.87;;
7917;SDS011;4004;42.624;23.386;2022-10-19T10:15:53;9.67;;;3.77;;
7917;SDS011;4004;42.624;23.386;2022-10-19T10:18:23;7.87;;;3.60;;
7917;SDS011;4004;42.624;23.386;2022-10-19T10:21:00;6.83;;;3.57;;
7917;SDS011;4004;42.624;23.386;2022-10-19T10:23:31;9.77;;;3.83;;
7917;SDS011;4004;42.624;23.386;2022-10-19T10:26:00;8.10;;;3.73;;
7917;SDS011;4004;42.624;23.386;2022-10-19T10:28:28;12.43;;;4.53;;
7917;SDS011;4004;42.624;23.386;2022-10-19T10:30:58;6.73;;;3.77;;
7917;SDS011;4004;42.624;23.386;2022-10-19T10:33:28;7.70;;;3.63;;
7917;SDS011;4004;42.624;23.386;2022-10-19T10:36:00;6.67;;;3.97;;
7917;SDS011;4004;42.624;23.386;2022-10-19T10:38:32;7.17;;;3.90;;
7917;SDS011;4004;42.624;23.386;2022-10-19T10:41:02;5.40;;;3.60;;
7917;SDS011;4004;42.624;23.386;2022-10-19T10:43:33;6.80;;;4.17;;
7917;SDS011;4004;42.624;23.386;2022-10-19T10:46:03;13.17;;;3.87;;
7917;SDS011;4004;42.624;23.386;2022-10-19T10:48:35;11.13;;;3.60;;
7917;SDS011;4004;42.624;23.386;2022-10-19T10:51:07;6.57;;;3.50;;
7917;SDS011;4004;42.624;23.386;2022-10-19T10:53:46;10.33;;;3.97;;
7917;SDS011;4004;42.624;23.386;2022-10-19T10:56:20;9.23;;;4.67;;
7917;SDS011;4004;42.624;23.386;2022-10-19T10:58:50;10.93;;;3.77;;
7917;SDS011;4004;42.624;23.386;2022-10-19T11:01:22;6.97;;;3.80;;
7917;SDS011;4004;42.624;23.386;2022-10-19T11:03:56;10.13;;;3.40;;
7917;SDS011;4004;42.624;23.386;2022-10-19T11:06:28;9.57;;;3.20;;
7917;SDS011;4004;42.624;23.386;2022-10-19T11:09:05;10.70;;;3.40;;
7917;SDS011;4004;42.624;23.386;2022-10-19T11:11:36;9.27;;;3.47;;
7917;SDS011;4004;42.624;23.386;2022-10-19T11:14:14;5.90;;;3.70;;
7917;SDS011;4004;42.624;23.386;2022-10-19T11:16:52;4.17;;;3.53;;
7917;SDS011;4004;42.624;23.386;2022-10-19T11:19:23;8.90;;;3.67;;
7917;SDS011;4004;42.624;23.386;2022-10-19T11:21:54;3.93;;;3.20;;
7917;SDS011;4004;42.624;23.386;2022-10-19T11:24:29;4.27;;;2.93;;
7917;SDS011;4004;42.624;23.386;2022-10-19T11:27:09;6.47;;;3.37;;
7917;SDS011;4004;42.624;23.386;2022-10-19T11:29:47;13.70;;;3.57;;
7917;SDS011;4004;42.624;23.386;2022-10-19T11:32:24;6.27;;;3.00;;
7917;SDS011;4004;42.624;23.386;2022-10-19T11:35:07;12.20;;;3.37;;
7917;SDS011;4004;42.624;23.386;2022-10-19T11:37:46;5.00;;;2.50;;
7917;SDS011;4004;42.624;23.386;2022-10-19T11:40:24;4.13;;;3.13;;
7917;SDS011;4004;42.624;23.386;2022-10-19T11:42:59;3.93;;;2.83;;
7917;SDS011;4004;42.624;23.386;2022-10-19T11:45:34;5.57;;;2.90;;
7917;SDS011;4004;42.624;23.386;2022-10-19T11:48:26;11.43;;;3.37;;
7917;SDS011;4004;42.624;23.386;2022-10-19T11:51:06;8.27;;;3.40;;
7917;SDS011;4004;42.624;23.386;2022-10-19T11:53:40;9.03;;;3.53;;
7917;SDS011;4004;42.624;23.386;2022-10-19T11:56:15;6.70;;;3.33;;
7917;SDS011;4004;42.624;23.386;2022-10-19T11:58:52;8.37;;;2.77;;
7917;SDS011;4004;42.624;23.386;2022-10-19T12:01:38;6.47;;;2.80;;
7917;SDS011;4004;42.624;23.386;2022-10-19T12:07:21;4.00;;;2.80;;
7917;SDS011;4004;42.624;23.386;2022-10-19T12:10:02;9.37;;;3.60;;
7917;SDS011;4004;42.624;23.386;2022-10-19T12:12:43;3.13;;;2.80;;
7917;SDS011;4004;42.624;23.386;2022-10-19T12:15:16;6.27;;;3.50;;
7917;SDS011;4004;42.624;23.386;2022-10-19T12:17:49;6.47;;;2.53;;
7917;SDS011;4004;42.624;23.386;2022-10-19T12:20:20;5.47;;;2.70;;
7917;SDS011;4004;42.624;23.386;2022-10-19T12:22:51;17.13;;;4.93;;
7917;SDS011;4004;42.624;23.386;2022-10-19T12:25:18;8.40;;;3.23;;
7917;SDS011;4004;42.624;23.386;2022-10-19T12:27:47;6.93;;;3.47;;
7917;SDS011;4004;42.624;23.386;2022-10-19T12:30:16;12.20;;;3.43;;
7917;SDS011;4004;42.624;23.386;2022-10-19T12:32:54;9.53;;;3.07;;
7917;SDS011;4004;42.624;23.386;2022-10-19T12:35:37;11.17;;;3.50;;
7917;SDS011;4004;42.624;23.386;2022-10-19T12:38:14;7.50;;;3.40;;
7917;SDS011;4004;42.624;23.386;2022-10-19T12:40:49;7.20;;;3.20;;
7917;SDS011;4004;42.624;23.386;2022-10-19T12:43:25;9.50;;;3.23;;
7917;SDS011;4004;42.624;23.386;2022-10-19T12:46:06;5.80;;;2.87;;
7917;SDS011;4004;42.624;23.386;2022-10-19T12:48:40;16.80;;;4.13;;
7917;SDS011;4004;42.624;23.386;2022-10-19T12:51:11;9.60;;;3.70;;
7917;SDS011;4004;42.624;23.386;2022-10-19T12:53:40;10.63;;;4.17;;
7917;SDS011;4004;42.624;23.386;2022-10-19T12:56:12;10.07;;;3.80;;
7917;SDS011;4004;42.624;23.386;2022-10-19T12:58:51;7.83;;;3.03;;
7917;SDS011;4004;42.624;23.386;2022-10-19T13:01:21;5.33;;;2.60;;
7917;SDS011;4004;42.624;23.386;2022-10-19T13:03:53;6.63;;;2.80;;
7917;SDS011;4004;42.624;23.386;2022-10-19T13:06:34;6.07;;;3.50;;
7917;SDS011;4004;42.624;23.386;2022-10-19T13:09:04;4.73;;;3.17;;
7917;SDS011;4004;42.624;23.386;2022-10-19T13:11:33;4.57;;;3.00;;
7917;SDS011;4004;42.624;23.386;2022-10-19T13:14:02;10.90;;;4.50;;
7917;SDS011;4004;42.624;23.386;2022-10-19T13:19:23;12.23;;;3.47;;
7917;SDS011;4004;42.624;23.386;2022-10-19T13:21:51;14.67;;;3.87;;
7917;SDS011;4004;42.624;23.386;2022-10-19T13:27:59;8.73;;;3.93;;
7917;SDS011;4004;42.624;23.386;2022-10-19T13:36:15;12.13;;;4.23;;
7917;SDS011;4004;42.624;23.386;2022-10-19T13:38:43;6.67;;;3.57;;
7917;SDS011;4004;42.624;23.386;2022-10-19T13:41:13;8.70;;;3.60;;
7917;SDS011;4004;42.624;23.386;2022-10-19T13:43:49;9.60;;;3.70;;
7917;SDS011;4004;42.624;23.386;2022-10-19T13:46:21;12.67;;;3.53;;
7917;SDS011;4004;42.624;23.386;2022-10-19T13:52:20;11.53;;;4.17;;
7917;SDS011;4004;42.624;23.386;2022-10-19T13:58:20;7.67;;;3.77;;
7917;SDS011;4004;42.624;23.386;2022-10-19T14:01:12;11.33;;;4.37;;
7917;SDS011;4004;42.624;23.386;2022-10-19T14:04:05;10.67;;;4.10;;
7917;SDS011;4004;42.624;23.386;2022-10-19T14:06:44;6.17;;;3.87;;
7917;SDS011;4004;42.624;23.386;2022-10-19T14:09:21;11.77;;;4.57;;
7917;SDS011;4004;42.624;23.386;2022-10-19T14:11:58;17.83;;;4.47;;
7917;SDS011;4004;42.624;23.386;2022-10-19T14:14:37;15.63;;;4.60;;
7917;SDS011;4004;42.624;23.386;2022-10-19T14:17:12;14.00;;;4.20;;
7917;SDS011;4004;42.624;23.386;2022-10-19T14:19:42;10.13;;;4.00;;
7917;SDS011;4004;42.624;23.386;2022-10-19T14:22:17;11.87;;;4.93;;
7917;SDS011;4004;42.624;23.386;2022-10-19T14:24:46;14.13;;;5.47;;
7917;SDS011;4004;42.624;23.386;2022-10-19T14:27:14;14.23;;;4.50;;
7917;SDS011;4004;42.624;23.386;2022-10-19T14:29:44;10.77;;;4.50;;
7917;SDS011;4004;42.624;23.386;2022-10-19T14:32:13;11.13;;;4.63;;
7917;SDS011;4004;42.624;23.386;2022-10-19T14:34:42;9.27;;;4.23;;
7917;SDS011;4004;42.624;23.386;2022-10-19T14:37:12;11.97;;;3.60;;
7917;SDS011;4004;42.624;23.386;2022-10-19T14:39:47;11.07;;;4.37;;
7917;SDS011;4004;42.624;23.386;2022-10-19T14:42:23;6.67;;;3.67;;
7917;SDS011;4004;42.624;23.386;2022-10-19T14:44:50;12.27;;;4.73;;
7917;SDS011;4004;42.624;23.386;2022-10-19T14:47:18;8.30;;;4.33;;
7917;SDS011;4004;42.624;23.386;2022-10-19T14:49:48;11.23;;;3.90;;
7917;SDS011;4004;42.624;23.386;2022-10-19T14:52:16;7.97;;;4.03;;
7917;SDS011;4004;42.624;23.386;2022-10-19T14:54:49;12.67;;;4.87;;
7917;SDS011;4004;42.624;23.386;2022-10-19T14:57:22;12.87;;;4.93;;
7917;SDS011;4004;42.624;23.386;2022-10-19T14:59:53;21.73;;;5.30;;
7917;SDS011;4004;42.624;23.386;2022-10-19T15:02:23;10.63;;;4.60;;
7917;SDS011;4004;42.624;23.386;2022-10-19T15:04:56;10.63;;;4.33;;
7917;SDS011;4004;42.624;23.386;2022-10-19T15:07:25;11.63;;;4.73;;
7917;SDS011;4004;42.624;23.386;2022-10-19T15:10:00;10.43;;;5.33;;
7917;SDS011;4004;42.624;23.386;2022-10-19T15:12:29;15.13;;;5.43;;
7917;SDS011;4004;42.624;23.386;2022-10-19T15:15:05;10.10;;;4.40;;
7917;SDS011;4004;42.624;23.386;2022-10-19T15:17:33;13.23;;;5.40;;
7917;SDS011;4004;42.624;23.386;2022-10-19T15:20:03;15.00;;;5.07;;
7917;SDS011;4004;42.624;23.386;2022-10-19T15:22:49;11.70;;;4.03;;
7917;SDS011;4004;42.624;23.386;2022-10-19T15:25:22;16.47;;;4.83;;
7917;SDS011;4004;42.624;23.386;2022-10-19T15:28:19;16.07;;;5.87;;
7917;SDS011;4004;42.624;23.386;2022-10-19T15:30:56;12.10;;;5.10;;
7917;SDS011;4004;42.624;23.386;2022-10-19T15:33:25;11.23;;;4.97;;
7917;SDS011;4004;42.624;23.386;2022-10-19T15:36:02;9.23;;;4.67;;
7917;SDS011;4004;42.624;23.386;2022-10-19T15:38:33;8.83;;;4.77;;
7917;SDS011;4004;42.624;23.386;2022-10-19T15:41:01;10.53;;;5.03;;